sensor_id;sensor_type;location;lat;lon;timestamp;pressure;altitude;pressure_sealevel;temperature;humidity
20350;BME280;10332;50.208;18.988;2022-11-15T00:01:16;98399.38;;;7.40;100.00
20350;BME280;10332;50.208;18.988;2022-11-15T00:03:45;98389.63;;;7.44;100.00
20350;BME280;10332;50.208;18.988;2022-11-15T00:06:12;98383.97;;;7.53;100.00
20350;BME280;10332;50.208;18.988;2022-11-15T00:08:40;98396.75;;;7.58;100.00
20350;BME280;10332;50.208;18.988;2022-11-15T00:11:11;98388.69;;;7.62;100.00
20350;BME280;10332;50.208;18.988;2022-11-15T00:13:39;98375.97;;;7.58;99.38
20350;BME280;10332;50.208;18.988;2022-11-15T00:16:08;98375.44;;;7.51;99.37
20350;BME280;10332;50.208;18.988;2022-11-15T00:18:37;98372.09;;;7.49;99.85
20350;BME280;10332;50.208;18.988;2022-11-15T00:21:10;98363.00;;;7.40;100.00
20350;BME280;10332;50.208;18.988;2022-11-15T00:23:38;98374.91;;;7.45;100.00
20350;BME280;10332;50.208;18.988;2022-11-15T00:26:06;98367.72;;;7.50;100.00
20350;BME280;10332;50.208;18.988;2022-11-15T00:28:34;98365.03;;;7.51;100.00
20350;BME280;10332;50.208;18.988;2022-11-15T00:31:04;98362.34;;;7.53;100.00
20350;BME280;10332;50.208;18.988;2022-11-15T00:33:33;98362.34;;;7.53;100.00
20350;BME280;10332;50.208;18.988;2022-11-15T00:36:08;98348.69;;;7.49;99.96
20350;BME280;10332;50.208;18.988;2022-11-15T00:38:40;98349.84;;;7.44;99.80
20350;BME280;10332;50.208;18.988;2022-11-15T00:41:08;98344.16;;;7.37;99.78
20350;BME280;10332;50.208;18.988;2022-11-15T00:43:37;98348.81;;;7.30;99.94
20350;BME280;10332;50.208;18.988;2022-11-15T00:46:04;98340.66;;;7.21;100.00
20350;BME280;10332;50.208;18.988;2022-11-15T00:48:32;98344.16;;;7.20;100.00
20350;BME280;10332;50.208;18.988;2022-11-15T00:50:59;98338.03;;;7.21;100.00
20350;BME280;10332;50.208;18.988;2022-11-15T00:53:27;98325.81;;;7.23;100.00
20350;BME280;10332;50.208;18.988;2022-11-15T00:55:54;98328.41;;;7.23;100.00
20350;BME280;10332;50.208;18.988;2022-11-15T00:58:22;98337.03;;;7.06;100.00
20350;BME280;10332;50.208;18.988;2022-11-15T01:00:49;98324.81;;;7.08;100.00
20350;BME280;10332;50.208;18.988;2022-11-15T01:03:17;98325.81;;;7.05;100.00
20350;BME280;10332;50.208;18.988;2022-11-15T01:05:44;98328.22;;;7.10;100.00
20350;BME280;10332;50.208;18.988;2022-11-15T01:08:15;98332.22;;;6.98;100.00
20350;BME280;10332;50.208;18.988;2022-11-15T01:10:43;98318.72;;;6.92;100.00
20350;BME280;10332;50.208;18.988;2022-11-15T01:13:10;98323.06;;;6.91;100.00
20350;BME280;10332;50.208;18.988;2022-11-15T01:15:41;98313.38;;;6.95;100.00
20350;BME280;10332;50.208;18.988;2022-11-15T01:18:09;98309.66;;;6.83;100.00
20350;BME280;10332;50.208;18.988;2022-11-15T01:20:41;98313.84;;;6.86;100.00
20350;BME280;10332;50.208;18.988;2022-11-15T01:23:09;98315.59;;;6.85;100.00
20350;BME280;10332;50.208;18.988;2022-11-15T01:25:37;98312.94;;;6.87;100.00
20350;BME280;10332;50.208;18.988;2022-11-15T01:28:04;98307.19;;;6.80;100.00
20350;BME280;10332;50.208;18.988;2022-11-15T01:30:31;98306.44;;;6.78;100.00
20350;BME280;10332;50.208;18.988;2022-11-15T01:32:59;98298.66;;;6.78;100.00
20350;BME280;10332;50.208;18.988;2022-11-15T01:35:26;98299.56;;;6.77;100.00
20350;BME280;10332;50.208;18.988;2022-11-15T01:37:53;98301.47;;;6.73;100.00
20350;BME280;10332;50.208;18.988;2022-11-15T01:40:21;98299.31;;;6.64;100.00
20350;BME280;10332;50.208;18.988;2022-11-15T01:42:48;98288.81;;;6.67;100.00
20350;BME280;10332;50.208;18.988;2022-11-15T01:45:16;98295.13;;;6.62;100.00
20350;BME280;10332;50.208;18.988;2022-11-15T01:47:49;98282.88;;;6.65;100.00
20350;BME280;10332;50.208;18.988;2022-11-15T01:50:27;98281.16;;;6.64;100.00
20350;BME280;10332;50.208;18.988;2022-11-15T01:52:56;98276.97;;;6.62;100.00
20350;BME280;10332;50.208;18.988;2022-11-15T01:55:27;98270.28;;;6.58;100.00
20350;BME280;10332;50.208;18.988;2022-11-15T01:57:59;98268.44;;;6.60;100.00
20350;BME280;10332;50.208;18.988;2022-11-15T02:00:29;98267.50;;;6.61;100.00
20350;BME280;10332;50.208;18.988;2022-11-15T02:02:57;98260.50;;;6.63;100.00
20350;BME280;10332;50.208;18.988;2022-11-15T02:05:25;98264.53;;;6.68;100.00
20350;BME280;10332;50.208;18.988;2022-11-15T02:07:53;98266.22;;;6.69;100.00
20350;BME280;10332;50.208;18.988;2022-11-15T02:10:23;98261.72;;;6.73;100.00
20350;BME280;10332;50.208;18.988;2022-11-15T02:12:52;98258.19;;;6.74;100.00
20350;BME280;10332;50.208;18.988;2022-11-15T02:15:20;98262.88;;;6.67;100.00
20350;BME280;10332;50.208;18.988;2022-11-15T02:29:10;98244.25;;;6.42;100.00
20350;BME280;10332;50.208;18.988;2022-11-15T02:34:54;98238.88;;;6.45;100.00
20350;BME280;10332;50.208;18.988;2022-11-15T02:37:39;98241.19;;;6.51;100.00
20350;BME280;10332;50.208;18.988;2022-11-15T02:40:53;98237.00;;;6.48;100.00
20350;BME280;10332;50.208;18.988;2022-11-15T02:43:50;98238.38;;;6.38;100.00
20350;BME280;10332;50.208;18.988;2022-11-15T02:46:32;98230.59;;;6.38;100.00
20350;BME280;10332;50.208;18.988;2022-11-15T02:49:21;98223.41;;;6.26;100.00
20350;BME280;10332;50.208;18.988;2022-11-15T02:51:51;98224.56;;;6.20;100.00
20350;BME280;10332;50.208;18.988;2022-11-15T02:54:26;98228.13;;;6.18;100.00
20350;BME280;10332;50.208;18.988;2022-11-15T02:57:02;98222.00;;;6.19;100.00
20350;BME280;10332;50.208;18.988;2022-11-15T03:05:37;98204.78;;;6.18;100.00
20350;BME280;10332;50.208;18.988;2022-11-15T03:11:23;98199.44;;;6.04;100.00
20350;BME280;10332;50.208;18.988;2022-11-15T03:14:04;98203.63;;;6.06;100.00
20350;BME280;10332;50.208;18.988;2022-11-15T03:16:47;98207.53;;;6.15;100.00
20350;BME280;10332;50.208;18.988;2022-11-15T03:19:26;98205.69;;;6.17;100.00
20350;BME280;10332;50.208;18.988;2022-11-15T03:21:59;98205.22;;;6.09;100.00
20350;BME280;10332;50.208;18.988;2022-11-15T03:24:30;98198.44;;;6.06;100.00
20350;BME280;10332;50.208;18.988;2022-11-15T03:27:02;98203.72;;;6.05;100.00
20350;BME280;10332;50.208;18.988;2022-11-15T03:29:39;98197.44;;;6.09;100.00
20350;BME280;10332;50.208;18.988;2022-11-15T03:32:17;98197.38;;;6.10;100.00
20350;BME280;10332;50.208;18.988;2022-11-15T03:37:50;98182.75;;;6.09;100.00
20350;BME280;10332;50.208;18.988;2022-11-15T03:40:27;98181.81;;;6.10;100.00
20350;BME280;10332;50.208;18.988;2022-11-15T03:43:15;98177.88;;;6.03;100.00
20350;BME280;10332;50.208;18.988;2022-11-15T03:45:57;98183.91;;;6.04;100.00
20350;BME280;10332;50.208;18.988;2022-11-15T03:48:36;98176.97;;;6.04;100.00
20350;BME280;10332;50.208;18.988;2022-11-15T03:51:07;98168.28;;;5.86;100.00
20350;BME280;10332;50.208;18.988;2022-11-15T03:53:34;98166.31;;;5.91;100.00
20350;BME280;10332;50.208;18.988;2022-11-15T03:56:01;98167.53;;;5.84;100.00
20350;BME280;10332;50.208;18.988;2022-11-15T03:58:29;98162.19;;;5.87;100.00
20350;BME280;10332;50.208;18.988;2022-11-15T04:00:56;98163.03;;;5.88;100.00
20350;BME280;10332;50.208;18.988;2022-11-15T04:03:23;98157.94;;;5.86;100.00
20350;BME280;10332;50.208;18.988;2022-11-15T04:05:51;98151.69;;;5.90;100.00
20350;BME280;10332;50.208;18.988;2022-11-15T04:08:18;98158.59;;;5.90;100.00
20350;BME280;10332;50.208;18.988;2022-11-15T04:10:49;98150.66;;;5.94;100.00
20350;BME280;10332;50.208;18.988;2022-11-15T04:13:16;98135.88;;;5.96;100.00
20350;BME280;10332;50.208;18.988;2022-11-15T04:15:43;98140.53;;;5.88;100.00
20350;BME280;10332;50.208;18.988;2022-11-15T04:18:11;98136.72;;;5.78;100.00
20350;BME280;10332;50.208;18.988;2022-11-15T04:20:38;98132.38;;;5.79;100.00
20350;BME280;10332;50.208;18.988;2022-11-15T04:23:24;98136.88;;;5.75;100.00
20350;BME280;10332;50.208;18.988;2022-11-15T04:26:20;98135.19;;;5.74;100.00
20350;BME280;10332;50.208;18.988;2022-11-15T04:28:49;98138.69;;;5.73;100.00
20350;BME280;10332;50.208;18.988;2022-11-15T04:31:36;98135.06;;;5.77;100.00
20350;BME280;10332;50.208;18.988;2022-11-15T04:34:03;98132.69;;;5.90;100.00
20350;BME280;10332;50.208;18.988;2022-11-15T04:36:30;98130.38;;;5.84;100.00
20350;BME280;10332;50.208;18.988;2022-11-15T04:39:16;98119.69;;;5.91;100.00
20350;BME280;10332;50.208;18.988;2022-11-15T04:41:43;98121.25;;;5.95;100.00
20350;BME280;10332;50.208;18.988;2022-11-15T04:44:10;98118.19;;;6.05;100.00
20350;BME280;10332;50.208;18.988;2022-11-15T04:46:38;98111.78;;;6.12;100.00
20350;BME280;10332;50.208;18.988;2022-11-15T04:49:05;98124.50;;;6.16;100.00
20350;BME280;10332;50.208;18.988;2022-11-15T04:51:32;98115.06;;;6.15;100.00
20350;BME280;10332;50.208;18.988;2022-11-15T04:54:00;98114.38;;;6.12;100.00
20350;BME280;10332;50.208;18.988;2022-11-15T04:56:27;98116.97;;;6.12;100.00
20350;BME280;10332;50.208;18.988;2022-11-15T04:58:54;98109.03;;;6.15;100.00
20350;BME280;10332;50.208;18.988;2022-11-15T05:01:22;98113.16;;;6.19;100.00
20350;BME280;10332;50.208;18.988;2022-11-15T05:03:49;98108.22;;;6.14;100.00
20350;BME280;10332;50.208;18.988;2022-11-15T05:06:35;98102.19;;;6.14;100.00
20350;BME280;10332;50.208;18.988;2022-11-15T05:09:04;98112.56;;;6.14;100.00
20350;BME280;10332;50.208;18.988;2022-11-15T05:11:31;98106.38;;;6.16;100.00
20350;BME280;10332;50.208;18.988;2022-11-15T05:13:59;98099.25;;;6.20;100.00
20350;BME280;10332;50.208;18.988;2022-11-15T05:16:26;98096.84;;;6.17;100.00
20350;BME280;10332;50.208;18.988;2022-11-15T05:18:54;98093.25;;;6.19;99.89
20350;BME280;10332;50.208;18.988;2022-11-15T05:21:22;98086.84;;;6.09;99.82
20350;BME280;10332;50.208;18.988;2022-11-15T05:23:49;98090.44;;;6.07;99.61
20350;BME280;10332;50.208;18.988;2022-11-15T05:26:18;98086.00;;;6.09;99.73
20350;BME280;10332;50.208;18.988;2022-11-15T05:28:45;98082.50;;;6.10;99.83
20350;BME280;10332;50.208;18.988;2022-11-15T05:31:15;98079.63;;;6.16;99.89
20350;BME280;10332;50.208;18.988;2022-11-15T05:33:44;98063.22;;;6.15;99.82
20350;BME280;10332;50.208;18.988;2022-11-15T05:36:31;98071.38;;;6.25;99.52
20350;BME280;10332;50.208;18.988;2022-11-15T05:39:01;98059.50;;;6.21;99.55
20350;BME280;10332;50.208;18.988;2022-11-15T05:41:51;98057.22;;;6.15;99.28
20350;BME280;10332;50.208;18.988;2022-11-15T05:44:22;98053.78;;;6.14;99.18
20350;BME280;10332;50.208;18.988;2022-11-15T05:46:52;98055.38;;;6.17;99.17
20350;BME280;10332;50.208;18.988;2022-11-15T05:49:27;98055.38;;;6.17;98.79
20350;BME280;10332;50.208;18.988;2022-11-15T05:51:59;98057.28;;;6.13;98.67
20350;BME280;10332;50.208;18.988;2022-11-15T05:54:26;98064.72;;;6.19;98.65
20350;BME280;10332;50.208;18.988;2022-11-15T05:56:54;98062.13;;;6.19;98.47
20350;BME280;10332;50.208;18.988;2022-11-15T05:59:22;98062.09;;;6.21;98.31
20350;BME280;10332;50.208;18.988;2022-11-15T06:01:50;98056.91;;;6.21;98.23
20350;BME280;10332;50.208;18.988;2022-11-15T06:04:18;98061.25;;;6.20;98.08
20350;BME280;10332;50.208;18.988;2022-11-15T06:06:45;98055.66;;;6.28;98.11
20350;BME280;10332;50.208;18.988;2022-11-15T06:09:13;98067.78;;;6.28;97.74
20350;BME280;10332;50.208;18.988;2022-11-15T06:11:40;98053.00;;;6.30;97.53
20350;BME280;10332;50.208;18.988;2022-11-15T06:14:07;98062.09;;;6.21;97.08
20350;BME280;10332;50.208;18.988;2022-11-15T06:16:35;98063.13;;;6.34;96.92
20350;BME280;10332;50.208;18.988;2022-11-15T06:19:02;98060.09;;;6.26;96.33
20350;BME280;10332;50.208;18.988;2022-11-15T06:21:29;98060.84;;;6.28;96.22
20350;BME280;10332;50.208;18.988;2022-11-15T06:23:57;98066.03;;;6.28;96.28
20350;BME280;10332;50.208;18.988;2022-11-15T06:26:24;98066.34;;;6.39;96.32
20350;BME280;10332;50.208;18.988;2022-11-15T06:28:51;98062.72;;;6.42;95.87
20350;BME280;10332;50.208;18.988;2022-11-15T06:31:19;98071.88;;;6.49;95.70
20350;BME280;10332;50.208;18.988;2022-11-15T06:33:47;98068.72;;;6.60;95.73
20350;BME280;10332;50.208;18.988;2022-11-15T06:36:17;98067.56;;;6.65;95.23
20350;BME280;10332;50.208;18.988;2022-11-15T06:38:45;98070.75;;;6.70;94.92
20350;BME280;10332;50.208;18.988;2022-11-15T06:41:14;98086.81;;;6.77;94.56
20350;BME280;10332;50.208;18.988;2022-11-15T06:43:41;98090.00;;;6.82;94.12
20350;BME280;10332;50.208;18.988;2022-11-15T06:46:09;98083.47;;;6.91;93.99
20350;BME280;10332;50.208;18.988;2022-11-15T06:48:37;98083.81;;;7.00;93.67
20350;BME280;10332;50.208;18.988;2022-11-15T06:51:05;98087.84;;;7.06;92.90
20350;BME280;10332;50.208;18.988;2022-11-15T06:53:33;98092.88;;;7.09;92.17
20350;BME280;10332;50.208;18.988;2022-11-15T06:56:03;98093.06;;;7.22;92.17
20350;BME280;10332;50.208;18.988;2022-11-15T06:58:31;98098.41;;;7.34;92.06
20350;BME280;10332;50.208;18.988;2022-11-15T07:01:11;98092.88;;;7.40;91.68
20350;BME280;10332;50.208;18.988;2022-11-15T07:03:41;98100.91;;;7.52;90.51
20350;BME280;10332;50.208;18.988;2022-11-15T07:06:10;98095.63;;;7.69;90.25
20350;BME280;10332;50.208;18.988;2022-11-15T07:08:37;98095.44;;;7.72;89.82
20350;BME280;10332;50.208;18.988;2022-11-15T07:11:07;98094.53;;;7.73;88.14
20350;BME280;10332;50.208;18.988;2022-11-15T07:13:36;98096.66;;;7.81;88.12
20350;BME280;10332;50.208;18.988;2022-11-15T07:16:07;98089.72;;;7.81;86.93
20350;BME280;10332;50.208;18.988;2022-11-15T07:18:39;98093.53;;;7.90;86.42
20350;BME280;10332;50.208;18.988;2022-11-15T07:21:10;98097.66;;;7.94;85.75
20350;BME280;10332;50.208;18.988;2022-11-15T07:23:38;98100.56;;;8.04;85.84
20350;BME280;10332;50.208;18.988;2022-11-15T07:26:07;98095.97;;;8.23;85.28
20350;BME280;10332;50.208;18.988;2022-11-15T07:28:35;98096.31;;;8.47;84.46
20350;BME280;10332;50.208;18.988;2022-11-15T07:31:08;98093.44;;;8.51;84.08
20350;BME280;10332;50.208;18.988;2022-11-15T07:33:36;98092.13;;;8.87;83.79
20350;BME280;10332;50.208;18.988;2022-11-15T07:36:06;98089.16;;;8.79;82.61
20350;BME280;10332;50.208;18.988;2022-11-15T07:38:35;98084.81;;;8.94;82.99
20350;BME280;10332;50.208;18.988;2022-11-15T07:41:09;98082.94;;;9.10;83.05
20350;BME280;10332;50.208;18.988;2022-11-15T07:43:36;98082.25;;;9.21;82.73
20350;BME280;10332;50.208;18.988;2022-11-15T07:46:08;98081.09;;;9.39;82.65
20350;BME280;10332;50.208;18.988;2022-11-15T07:48:38;98075.59;;;9.44;82.18
20350;BME280;10332;50.208;18.988;2022-11-15T07:51:16;98077.06;;;9.48;82.03
20350;BME280;10332;50.208;18.988;2022-11-15T07:53:44;98079.56;;;9.49;81.71
20350;BME280;10332;50.208;18.988;2022-11-15T07:56:12;98080.53;;;9.61;81.48
20350;BME280;10332;50.208;18.988;2022-11-15T07:58:39;98082.31;;;9.60;80.94
20350;BME280;10332;50.208;18.988;2022-11-15T08:01:09;98077.31;;;9.57;80.66
20350;BME280;10332;50.208;18.988;2022-11-15T08:03:37;98065.44;;;9.66;80.79
20350;BME280;10332;50.208;18.988;2022-11-15T08:06:05;98062.78;;;9.80;80.67
20350;BME280;10332;50.208;18.988;2022-11-15T08:08:32;98069.06;;;9.90;80.74
20350;BME280;10332;50.208;18.988;2022-11-15T08:11:01;98067.63;;;10.12;80.58
20350;BME280;10332;50.208;18.988;2022-11-15T08:13:28;98061.09;;;10.32;79.53
20350;BME280;10332;50.208;18.988;2022-11-15T08:16:01;98055.91;;;10.70;79.01
20350;BME280;10332;50.208;18.988;2022-11-15T08:18:29;98061.13;;;11.19;78.41
20350;BME280;10332;50.208;18.988;2022-11-15T08:21:01;98054.66;;;12.88;75.76
20350;BME280;10332;50.208;18.988;2022-11-15T08:23:28;98051.41;;;15.76;70.03
20350;BME280;10332;50.208;18.988;2022-11-15T08:26:04;98042.16;;;18.21;63.27
20350;BME280;10332;50.208;18.988;2022-11-15T08:28:32;98048.72;;;19.88;50.95
20350;BME280;10332;50.208;18.988;2022-11-15T08:31:00;98050.69;;;21.53;49.52
20350;BME280;10332;50.208;18.988;2022-11-15T08:33:28;98050.94;;;23.17;47.87
20350;BME280;10332;50.208;18.988;2022-11-15T08:35:57;98052.53;;;24.76;46.14
20350;BME280;10332;50.208;18.988;2022-11-15T08:38:25;98058.44;;;26.28;44.69
20350;BME280;10332;50.208;18.988;2022-11-15T08:41:03;98056.56;;;27.60;42.31
20350;BME280;10332;50.208;18.988;2022-11-15T08:43:30;98055.41;;;28.69;36.84
20350;BME280;10332;50.208;18.988;2022-11-15T08:45:59;98054.66;;;29.60;36.89
20350;BME280;10332;50.208;18.988;2022-11-15T08:48:26;98056.78;;;30.41;33.78
20350;BME280;10332;50.208;18.988;2022-11-15T08:50:57;98058.91;;;31.21;32.47
20350;BME280;10332;50.208;18.988;2022-11-15T08:53:24;98066.88;;;31.97;30.83
20350;BME280;10332;50.208;18.988;2022-11-15T08:55:52;98067.38;;;32.56;28.94
20350;BME280;10332;50.208;18.988;2022-11-15T08:58:19;98066.03;;;32.92;26.65
20350;BME280;10332;50.208;18.988;2022-11-15T09:00:47;98060.09;;;33.33;26.23
20350;BME280;10332;50.208;18.988;2022-11-15T09:03:14;98057.59;;;33.71;25.19
20350;BME280;10332;50.208;18.988;2022-11-15T09:05:42;98063.38;;;33.57;24.22
20350;BME280;10332;50.208;18.988;2022-11-15T09:08:09;98058.16;;;33.29;23.20
20350;BME280;10332;50.208;18.988;2022-11-15T09:10:58;98055.63;;;33.88;23.69
20350;BME280;10332;50.208;18.988;2022-11-15T09:13:25;98049.22;;;33.99;23.21
20350;BME280;10332;50.208;18.988;2022-11-15T09:15:57;98049.25;;;34.04;23.05
20350;BME280;10332;50.208;18.988;2022-11-15T09:18:25;98045.50;;;34.69;22.75
20350;BME280;10332;50.208;18.988;2022-11-15T09:20:56;98049.63;;;35.30;21.95
20350;BME280;10332;50.208;18.988;2022-11-15T09:23:25;98034.94;;;35.98;21.45
20350;BME280;10332;50.208;18.988;2022-11-15T09:26:02;98034.91;;;36.03;20.38
20350;BME280;10332;50.208;18.988;2022-11-15T09:28:31;98022.13;;;35.94;20.72
20350;BME280;10332;50.208;18.988;2022-11-15T09:31:03;98020.00;;;36.52;20.55
20350;BME280;10332;50.208;18.988;2022-11-15T09:33:31;98022.84;;;37.16;20.24
20350;BME280;10332;50.208;18.988;2022-11-15T09:36:07;98014.94;;;37.10;19.81
20350;BME280;10332;50.208;18.988;2022-11-15T09:38:34;98016.59;;;38.10;19.47
20350;BME280;10332;50.208;18.988;2022-11-15T09:43:52;98003.38;;;39.09;17.76
20350;BME280;10332;50.208;18.988;2022-11-15T09:48:57;98002.72;;;39.41;17.51
20350;BME280;10332;50.208;18.988;2022-11-15T09:51:39;97983.44;;;39.51;18.04
20350;BME280;10332;50.208;18.988;2022-11-15T09:54:31;97982.78;;;38.11;18.04
20350;BME280;10332;50.208;18.988;2022-11-15T10:05:51;97973.22;;;38.95;17.53
20350;BME280;10332;50.208;18.988;2022-11-15T10:11:20;97969.34;;;37.85;18.23
20350;BME280;10332;50.208;18.988;2022-11-15T10:14:24;97956.34;;;37.77;18.09
20350;BME280;10332;50.208;18.988;2022-11-15T10:17:17;97959.84;;;37.33;18.12
20350;BME280;10332;50.208;18.988;2022-11-15T10:20:19;97955.69;;;35.34;19.71
20350;BME280;10332;50.208;18.988;2022-11-15T10:23:05;97945.91;;;35.33;20.26
20350;BME280;10332;50.208;18.988;2022-11-15T10:25:34;97954.06;;;34.33;21.34
20350;BME280;10332;50.208;18.988;2022-11-15T10:30:55;97951.94;;;35.65;20.02
20350;BME280;10332;50.208;18.988;2022-11-15T10:33:30;97948.69;;;36.34;19.50
20350;BME280;10332;50.208;18.988;2022-11-15T10:39:12;97929.94;;;35.41;20.35
20350;BME280;10332;50.208;18.988;2022-11-15T10:41:42;97947.38;;;37.22;19.73
20350;BME280;10332;50.208;18.988;2022-11-15T10:44:31;97934.91;;;38.52;17.90
20350;BME280;10332;50.208;18.988;2022-11-15T10:49:32;97931.09;;;39.01;18.09
20350;BME280;10332;50.208;18.988;2022-11-15T10:52:18;97925.63;;;37.56;18.78
20350;BME280;10332;50.208;18.988;2022-11-15T10:55:12;97936.44;;;35.45;20.63
20350;BME280;10332;50.208;18.988;2022-11-15T10:57:54;97929.78;;;34.48;21.09
20350;BME280;10332;50.208;18.988;2022-11-15T11:00:48;97921.38;;;33.48;22.33
20350;BME280;10332;50.208;18.988;2022-11-15T11:03:35;97916.91;;;33.10;23.09
20350;BME280;10332;50.208;18.988;2022-11-15T11:06:17;97914.50;;;31.07;24.77
20350;BME280;10332;50.208;18.988;2022-11-15T11:08:58;97911.13;;;28.51;27.60
20350;BME280;10332;50.208;18.988;2022-11-15T11:11:48;97912.72;;;27.59;28.78
20350;BME280;10332;50.208;18.988;2022-11-15T11:14:37;97910.13;;;26.56;30.31
20350;BME280;10332;50.208;18.988;2022-11-15T11:20:41;97899.44;;;25.17;33.24
20350;BME280;10332;50.208;18.988;2022-11-15T11:23:42;97893.53;;;25.94;32.77
20350;BME280;10332;50.208;18.988;2022-11-15T11:27:11;97887.34;;;26.14;32.10
20350;BME280;10332;50.208;18.988;2022-11-15T11:30:08;97875.56;;;26.35;32.02
20350;BME280;10332;50.208;18.988;2022-11-15T11:33:03;97887.00;;;27.20;31.04
20350;BME280;10332;50.208;18.988;2022-11-15T11:36:07;97870.78;;;27.71;30.50
20350;BME280;10332;50.208;18.988;2022-11-15T11:38:52;97869.97;;;28.14;30.57
20350;BME280;10332;50.208;18.988;2022-11-15T11:42:11;97873.81;;;27.18;30.86
20350;BME280;10332;50.208;18.988;2022-11-15T11:50:40;97860.72;;;24.39;35.17
20350;BME280;10332;50.208;18.988;2022-11-15T11:55:49;97850.72;;;24.19;35.61
20350;BME280;10332;50.208;18.988;2022-11-15T11:58:34;97851.44;;;23.72;36.88
20350;BME280;10332;50.208;18.988;2022-11-15T12:01:19;97851.31;;;24.15;36.29
20350;BME280;10332;50.208;18.988;2022-11-15T12:09:32;97831.34;;;22.18;40.33
20350;BME280;10332;50.208;18.988;2022-11-15T12:12:38;97822.34;;;22.49;39.61
20350;BME280;10332;50.208;18.988;2022-11-15T12:15:22;97825.44;;;22.37;39.89
20350;BME280;10332;50.208;18.988;2022-11-15T12:17:51;97822.63;;;22.24;40.16
20350;BME280;10332;50.208;18.988;2022-11-15T12:20:27;97818.66;;;21.91;42.00
20350;BME280;10332;50.208;18.988;2022-11-15T12:23:08;97810.31;;;21.27;42.72
20350;BME280;10332;50.208;18.988;2022-11-15T12:25:50;97816.44;;;20.58;44.01
20350;BME280;10332;50.208;18.988;2022-11-15T12:33:58;97811.91;;;19.48;46.64
20350;BME280;10332;50.208;18.988;2022-11-15T12:36:51;97807.66;;;19.14;47.53
20350;BME280;10332;50.208;18.988;2022-11-15T12:39:20;97807.94;;;18.87;48.12
20350;BME280;10332;50.208;18.988;2022-11-15T12:59:56;97783.19;;;17.09;55.27
20350;BME280;10332;50.208;18.988;2022-11-15T13:02:42;97773.00;;;16.96;55.54
20350;BME280;10332;50.208;18.988;2022-11-15T13:17:48;97761.25;;;16.37;59.10
20350;BME280;10332;50.208;18.988;2022-11-15T13:23:07;97757.25;;;16.06;61.73
20350;BME280;10332;50.208;18.988;2022-11-15T13:30:55;97751.78;;;15.89;62.25
20350;BME280;10332;50.208;18.988;2022-11-15T13:33:35;97756.13;;;15.81;62.20
20350;BME280;10332;50.208;18.988;2022-11-15T13:36:13;97746.25;;;15.65;64.58
20350;BME280;10332;50.208;18.988;2022-11-15T13:38:42;97746.41;;;15.44;66.10
20350;BME280;10332;50.208;18.988;2022-11-15T13:41:22;97747.63;;;15.13;67.74
20350;BME280;10332;50.208;18.988;2022-11-15T13:43:52;97736.28;;;15.12;69.70
20350;BME280;10332;50.208;18.988;2022-11-15T13:46:25;97735.75;;;14.89;69.96
20350;BME280;10332;50.208;18.988;2022-11-15T13:49:13;97740.72;;;14.83;69.87
20350;BME280;10332;50.208;18.988;2022-11-15T13:51:51;97734.94;;;14.79;69.64
20350;BME280;10332;50.208;18.988;2022-11-15T13:57:17;97728.44;;;14.83;68.66
20350;BME280;10332;50.208;18.988;2022-11-15T13:59:53;97730.09;;;14.84;68.19
20350;BME280;10332;50.208;18.988;2022-11-15T14:02:34;97725.09;;;14.91;67.81
20350;BME280;10332;50.208;18.988;2022-11-15T14:05:18;97718.31;;;14.88;68.31
20350;BME280;10332;50.208;18.988;2022-11-15T14:07:59;97720.78;;;14.90;68.10
20350;BME280;10332;50.208;18.988;2022-11-15T14:10:36;97708.63;;;14.89;68.03
20350;BME280;10332;50.208;18.988;2022-11-15T14:13:30;97717.22;;;14.81;68.35
20350;BME280;10332;50.208;18.988;2022-11-15T14:16:19;97720.69;;;14.72;69.16
20350;BME280;10332;50.208;18.988;2022-11-15T14:18:53;97720.28;;;14.67;69.72
20350;BME280;10332;50.208;18.988;2022-11-15T14:21:20;97718.88;;;14.63;69.77
20350;BME280;10332;50.208;18.988;2022-11-15T14:23:48;97718.59;;;14.46;71.25
20350;BME280;10332;50.208;18.988;2022-11-15T14:26:33;97710.00;;;14.25;72.68
20350;BME280;10332;50.208;18.988;2022-11-15T14:29:28;97706.69;;;14.13;72.84
20350;BME280;10332;50.208;18.988;2022-11-15T14:32:18;97706.50;;;13.96;73.17
20350;BME280;10332;50.208;18.988;2022-11-15T14:34:58;97704.13;;;13.83;74.35
20350;BME280;10332;50.208;18.988;2022-11-15T14:37:31;97695.00;;;13.68;74.48
20350;BME280;10332;50.208;18.988;2022-11-15T14:40:04;97696.19;;;13.63;74.69
20350;BME280;10332;50.208;18.988;2022-11-15T14:42:32;97690.81;;;13.65;74.47
20350;BME280;10332;50.208;18.988;2022-11-15T14:45:00;97692.88;;;13.61;74.65
20350;BME280;10332;50.208;18.988;2022-11-15T14:47:27;97682.22;;;13.53;75.36
20350;BME280;10332;50.208;18.988;2022-11-15T14:49:57;97686.06;;;13.40;76.21
20350;BME280;10332;50.208;18.988;2022-11-15T14:52:30;97683.50;;;13.28;77.30
20350;BME280;10332;50.208;18.988;2022-11-15T14:55:09;97692.63;;;13.24;77.41
20350;BME280;10332;50.208;18.988;2022-11-15T14:57:38;97671.56;;;13.15;77.96
20350;BME280;10332;50.208;18.988;2022-11-15T15:00:07;97665.13;;;12.98;79.60
20350;BME280;10332;50.208;18.988;2022-11-15T15:02:36;97663.53;;;13.06;77.81
20350;BME280;10332;50.208;18.988;2022-11-15T15:05:33;97662.69;;;13.06;77.60
20350;BME280;10332;50.208;18.988;2022-11-15T15:08:02;97661.59;;;13.08;77.51
20350;BME280;10332;50.208;18.988;2022-11-15T15:10:34;97659.63;;;13.01;78.56
20350;BME280;10332;50.208;18.988;2022-11-15T15:13:20;97662.50;;;12.98;77.78
20350;BME280;10332;50.208;18.988;2022-11-15T15:15:49;97661.38;;;12.91;78.75
20350;BME280;10332;50.208;18.988;2022-11-15T15:18:18;97652.25;;;12.85;78.51
20350;BME280;10332;50.208;18.988;2022-11-15T15:20:58;97654.56;;;12.78;78.85
20350;BME280;10332;50.208;18.988;2022-11-15T15:23:34;97655.06;;;12.72;78.95